Ferguson, Kentucky
Current Conditions -  °F | °C
As of 5:35 PM on Sunday 25 Jan 2015 (Local Time) from KSME Reporting Station
Overcast Overcast  
Wind Chill: 46°   Ceiling: 6500
Heat Index: 48°   Visibility: 10mi
Dew Point: 32°   Wind: 6mph
Humidity: 54%   Direction: 170°S
Pressure: 29.66"   Gusts: NA
Location:  37.07°N, 84.6°W
Report Text: KSME 252235Z AUTO 17005KT 10SM SCT055 BKN065 OVC085 09/00 A2966 RMK AO2
Loading
Personal Weather Stations






























Interactive Weather Map New forecast layout! Learn more

10-Day Weather Forecast

Advertisements
Track Severe Weather on mobile